Miami International Airport
KMIA : now visible

Airfield :











YOU CAN JOIN US ON...

 
LOGIN :

Register | Disclaimer

   EN    FR    IT 

 









Legend :    VFR   Marginal VFR   IFR   Intensive IFR   Very Intensive IFR
Visi :
Ceiling :
>= 8 km
>= 3000ft
5 to 8 km
1000 to 3000 ft
1500m to 5 km
500 to 1000 ft
800 to 1500m
200 to 500 ft
< 800m
< 200 ft
Symbols :   Thunderstorms  Fog  Heavy snow  Heavy precipitations  Wind > 20 kt






- Airport Elevation : 8 ft
- IATA code : MIA


KMIA - Miami International

CURRENT METAR :
  • 250653Z 00000KT 10SM SCT031 SCT050 SCT250 21/17 A3004 RMK AO2 SLP174 T02110172 $

EXPIRED METARs :
  • 250553Z 00000KT 10SM FEW031 SCT045 BKN070 BKN250 21/17 A3005 RMK AO2 SLP175 T02110167 10233 20211 58006
  • 250453Z 00000KT 10SM SCT045 BKN070 BKN230 22/17 A3006 RMK AO2 SLP178 T02220167 402670172

TAF KMIA
Valid from the 25 at 06:00 until the 26 at 12:00 UTC


250520Z 2506/2612 VRB03KT P6SM FEW025 SCT050
TEMPO 2507/2509 3SM BR FEW005 SCT015 BKN025
FM250900 VRB03KT 3SM BR SCT005 BKN020
TEMPO 2510/2512 1SM BR BKN005 OVC020
FM251500 33008KT P6SM FEW025 SCT250
FM260000 VRB02KT P6SM SKC



MET'MAP, your aeronautical weather chart ! - Copyright ORBIFLY December 2007 - Disclaimer

ORBIFLY MET'MAP TEAM :

Programming & Development : Alexandra Zaïnal
Concept & original design : Baudouin d'Aumeries
Assistance for programming : Marc-Olivier Méhu
Technical & hardware support : Manuel Goepfert

Contact : metmap@orbifly.com




SOURCES & CREDITS :

   NOAA       Earth
Advisory